createdAt,value
2023-03-08T00:02:06.397Z,7.13
2023-03-08T00:04:38.022Z,6.95
2023-03-08T00:07:09.743Z,6.70
2023-03-08T00:09:41.315Z,6.72
2023-03-08T00:12:13.917Z,8.30
2023-03-08T00:14:45.962Z,6.72
2023-03-08T00:17:18.120Z,7.47
2023-03-08T00:19:51.939Z,6.70
2023-03-08T00:22:25.257Z,7.10
2023-03-08T00:24:57.175Z,6.75
2023-03-08T00:27:28.788Z,7.10
2023-03-08T00:30:00.869Z,6.75
2023-03-08T00:32:32.590Z,6.03
2023-03-08T00:35:04.697Z,6.07
2023-03-08T00:37:36.250Z,6.35
2023-03-08T00:40:08.898Z,6.00
2023-03-08T00:42:40.434Z,6.55
2023-03-08T00:45:12.122Z,5.87
2023-03-08T00:47:43.647Z,5.95
2023-03-08T00:50:15.426Z,6.13
2023-03-08T00:52:47.014Z,5.38
2023-03-08T00:55:18.592Z,6.28
2023-03-08T00:57:50.178Z,5.32
2023-03-08T01:00:21.960Z,6.37
2023-03-08T01:02:53.821Z,5.30
2023-03-08T01:05:25.373Z,6.13
2023-03-08T01:07:56.876Z,5.70
2023-03-08T01:10:28.376Z,7.37
2023-03-08T01:12:59.883Z,5.67
2023-03-08T01:15:35.901Z,4.83
2023-03-08T01:18:07.485Z,5.93
2023-03-08T01:20:39.115Z,6.40
2023-03-08T01:23:11.154Z,5.20
2023-03-08T01:25:43.437Z,5.18
2023-03-08T01:28:14.992Z,6.00
2023-03-08T01:30:46.488Z,6.60
2023-03-08T01:33:20.964Z,5.57
2023-03-08T01:35:52.541Z,6.28
2023-03-08T01:38:25.119Z,6.10
2023-03-08T01:40:58.154Z,5.22
2023-03-08T01:43:31.669Z,5.63
2023-03-08T01:46:27.692Z,5.95
2023-03-08T01:48:59.480Z,5.70
2023-03-08T01:51:42.731Z,6.20
2023-03-08T01:54:28.505Z,5.65
2023-03-08T01:57:08.866Z,6.35
2023-03-08T01:59:40.724Z,5.28
2023-03-08T02:02:12.622Z,5.60
2023-03-08T02:04:47.410Z,5.60
2023-03-08T02:07:21.733Z,5.63
2023-03-08T02:09:53.584Z,6.03
2023-03-08T02:12:26.285Z,6.03
2023-03-08T02:14:58.456Z,5.53
2023-03-08T02:17:30.376Z,5.07
2023-03-08T02:20:10.850Z,6.00
2023-03-08T02:22:47.346Z,5.10
2023-03-08T02:25:26.957Z,5.78
2023-03-08T02:27:58.645Z,6.00
2023-03-08T02:30:37.252Z,5.93
2023-03-08T02:33:09.044Z,5.68
2023-03-08T02:35:42.768Z,6.35
2023-03-08T02:38:16.778Z,6.88
2023-03-08T02:40:51.423Z,5.07
2023-03-08T02:43:23.016Z,5.72
2023-03-08T02:45:54.850Z,5.97
2023-03-08T02:48:26.397Z,5.45
2023-03-08T02:50:57.956Z,5.33
2023-03-08T02:53:29.773Z,6.50
2023-03-08T02:56:01.369Z,5.40
2023-03-08T02:58:32.969Z,6.45
2023-03-08T03:01:10.936Z,6.70
2023-03-08T03:03:42.829Z,6.10
2023-03-08T03:06:19.832Z,7.65
2023-03-08T03:08:51.993Z,5.88
2023-03-08T03:11:23.937Z,6.57
2023-03-08T03:14:00.341Z,6.10
2023-03-08T03:16:32.563Z,5.85
2023-03-08T03:19:04.315Z,5.90
2023-03-08T03:21:36.260Z,6.38
2023-03-08T03:24:07.981Z,4.85
2023-03-08T03:26:39.743Z,6.38
2023-03-08T03:29:11.353Z,5.80
2023-03-08T03:31:42.904Z,6.57
2023-03-08T03:34:14.544Z,6.30
2023-03-08T03:36:46.289Z,5.72
2023-03-08T03:39:17.909Z,6.38
2023-03-08T03:41:49.455Z,5.65
2023-03-08T03:44:21.023Z,6.70
2023-03-08T03:46:52.879Z,6.40
2023-03-08T03:49:24.903Z,5.85
2023-03-08T03:51:57.227Z,5.75
2023-03-08T03:57:01.030Z,6.20
2023-03-08T04:02:05.690Z,6.13
2023-03-08T04:04:37.907Z,5.97
2023-03-08T04:07:11.979Z,5.50
2023-03-08T04:09:43.657Z,6.20
2023-03-08T04:12:15.448Z,6.60
2023-03-08T04:14:47.099Z,5.57
2023-03-08T04:17:19.745Z,5.50
2023-03-08T04:19:51.452Z,6.35
2023-03-08T04:22:23.336Z,5.65
2023-03-08T04:24:54.884Z,6.40
2023-03-08T04:27:26.705Z,6.03
2023-03-08T04:29:58.251Z,6.45
2023-03-08T04:32:34.506Z,5.93
2023-03-08T04:35:06.366Z,6.28
2023-03-08T04:37:39.017Z,6.40
2023-03-08T04:40:11.211Z,5.60
2023-03-08T04:42:43.608Z,6.60
2023-03-08T04:47:46.960Z,6.30
2023-03-08T04:50:18.603Z,6.47
2023-03-08T04:52:50.148Z,6.13
2023-03-08T04:55:23.028Z,6.27
2023-03-08T04:57:55.951Z,6.80
2023-03-08T05:00:27.525Z,6.25
2023-03-08T05:02:59.353Z,7.03
2023-03-08T05:05:30.821Z,6.70
2023-03-08T05:08:08.197Z,5.97
2023-03-08T05:10:39.719Z,5.70
2023-03-08T05:13:11.303Z,6.80
2023-03-08T05:15:43.382Z,6.13
2023-03-08T05:18:15.164Z,5.80
2023-03-08T05:21:02.422Z,5.55
2023-03-08T05:23:34.533Z,6.18
2023-03-08T05:26:08.316Z,7.00
2023-03-08T05:28:42.173Z,6.18
2023-03-08T05:31:24.279Z,6.72
2023-03-08T05:33:55.938Z,7.13
2023-03-08T05:36:27.662Z,7.53
2023-03-08T05:38:59.147Z,7.18
2023-03-08T05:41:30.886Z,6.97
2023-03-08T05:44:02.403Z,7.35
2023-03-08T05:46:34.379Z,6.60
2023-03-08T05:49:06.927Z,7.03
2023-03-08T05:51:38.462Z,6.40
2023-03-08T05:54:11.804Z,6.50
2023-03-08T05:56:43.355Z,6.68
2023-03-08T05:59:15.160Z,7.15
2023-03-08T06:01:47.793Z,7.13
2023-03-08T06:04:19.318Z,7.22
2023-03-08T06:06:50.891Z,6.67
2023-03-08T06:09:22.397Z,8.23
2023-03-08T06:11:54.081Z,7.43
2023-03-08T06:14:25.587Z,8.20
2023-03-08T06:16:57.151Z,7.40
2023-03-08T06:19:28.800Z,7.75
2023-03-08T06:22:00.326Z,7.43
2023-03-08T06:24:31.786Z,8.47
2023-03-08T06:27:03.342Z,7.43
2023-03-08T06:29:35.394Z,7.80
2023-03-08T06:32:10.077Z,7.78
2023-03-08T06:34:41.776Z,8.38
2023-03-08T06:37:14.027Z,8.65
2023-03-08T06:39:45.586Z,8.38
2023-03-08T06:42:17.722Z,8.23
2023-03-08T06:44:49.178Z,8.13
2023-03-08T06:47:20.981Z,7.90
2023-03-08T06:49:53.542Z,7.90
2023-03-08T06:52:26.461Z,7.75
2023-03-08T06:54:57.929Z,8.10
2023-03-08T06:57:29.525Z,7.37
2023-03-08T07:00:01.333Z,8.55
2023-03-08T07:02:32.845Z,10.43
2023-03-08T07:05:04.834Z,9.60
2023-03-08T07:07:36.988Z,9.07
2023-03-08T07:10:11.066Z,8.25
2023-03-08T07:12:43.778Z,8.52
2023-03-08T07:15:19.050Z,8.05
2023-03-08T07:17:52.421Z,9.38
2023-03-08T07:20:26.365Z,8.48
2023-03-08T07:23:01.605Z,8.80
2023-03-08T07:25:33.190Z,7.72
2023-03-08T07:28:05.000Z,7.75
2023-03-08T07:30:36.549Z,9.20
2023-03-08T07:33:11.478Z,7.00
2023-03-08T07:35:43.156Z,8.50
2023-03-08T07:38:15.231Z,8.90
2023-03-08T07:40:54.912Z,8.60
2023-03-08T07:43:26.887Z,8.38
2023-03-08T07:46:02.606Z,9.27
2023-03-08T07:48:34.456Z,8.52
2023-03-08T07:51:08.774Z,8.50
2023-03-08T07:53:40.377Z,8.75
2023-03-08T07:56:12.009Z,9.02
2023-03-08T07:58:45.059Z,8.63
2023-03-08T08:01:17.056Z,9.07
2023-03-08T08:03:48.608Z,7.70
2023-03-08T08:06:20.244Z,8.52
2023-03-08T08:08:52.181Z,7.85
2023-03-08T08:11:23.807Z,7.75
2023-03-08T08:13:55.810Z,8.00
2023-03-08T08:16:27.590Z,7.78
2023-03-08T08:18:59.761Z,7.28
2023-03-08T08:21:31.321Z,7.50
2023-03-08T08:24:03.027Z,7.78
2023-03-08T08:26:34.603Z,8.02
2023-03-08T08:29:06.435Z,5.90
2023-03-08T08:31:38.284Z,7.57
2023-03-08T08:34:10.338Z,7.10
2023-03-08T08:36:41.885Z,6.43
2023-03-08T08:39:13.365Z,8.00
2023-03-08T08:41:45.165Z,7.00
2023-03-08T08:44:16.745Z,7.90
2023-03-08T08:46:49.377Z,7.25
2023-03-08T08:49:21.013Z,7.28
2023-03-08T08:51:53.465Z,7.63
2023-03-08T08:56:56.478Z,7.28
2023-03-08T08:59:28.252Z,9.17
2023-03-08T09:01:59.826Z,6.95
2023-03-08T09:04:31.480Z,7.60
2023-03-08T09:07:07.512Z,6.50
2023-03-08T09:09:39.062Z,6.13
2023-03-08T09:12:10.801Z,7.57
2023-03-08T09:14:42.416Z,7.22
2023-03-08T09:17:13.982Z,5.75
2023-03-08T09:19:45.510Z,7.13
2023-03-08T09:22:17.173Z,7.27
2023-03-08T09:24:51.640Z,7.40
2023-03-08T09:27:23.175Z,7.82
2023-03-08T09:29:54.666Z,7.37
2023-03-08T09:32:26.893Z,6.87
2023-03-08T09:34:58.450Z,7.10
2023-03-08T09:37:30.046Z,6.82
2023-03-08T09:40:02.105Z,7.10
2023-03-08T09:42:34.144Z,6.78
2023-03-08T09:45:10.409Z,7.88
2023-03-08T09:47:51.929Z,7.15
2023-03-08T09:50:23.463Z,7.38
2023-03-08T09:53:00.315Z,6.47
2023-03-08T09:55:34.896Z,7.97
2023-03-08T09:58:39.555Z,7.43
2023-03-08T10:01:32.826Z,7.45
2023-03-08T10:04:19.492Z,7.40
2023-03-08T10:07:12.478Z,8.07
2023-03-08T10:09:55.492Z,6.13
2023-03-08T10:12:36.122Z,6.75
2023-03-08T10:15:16.552Z,7.38
2023-03-08T10:18:00.888Z,7.35
2023-03-08T10:20:37.463Z,7.25
2023-03-08T10:23:22.047Z,7.07
2023-03-08T10:25:53.603Z,7.20
2023-03-08T10:28:26.531Z,7.67
2023-03-08T10:31:04.407Z,7.53
2023-03-08T10:33:36.565Z,8.23
2023-03-08T10:36:25.426Z,8.07
2023-03-08T10:39:13.501Z,6.70
2023-03-08T10:41:49.561Z,7.35
2023-03-08T10:44:33.816Z,6.80
2023-03-08T10:47:17.731Z,7.38
2023-03-08T10:49:49.645Z,8.52
2023-03-08T10:52:26.645Z,9.18
2023-03-08T10:55:05.652Z,7.88
2023-03-08T10:57:38.286Z,6.20
2023-03-08T11:00:40.832Z,6.10
2023-03-08T11:03:20.994Z,6.60
2023-03-08T11:05:57.053Z,5.97
2023-03-08T11:08:35.489Z,5.97
2023-03-08T11:11:13.027Z,6.38
2023-03-08T11:13:46.874Z,5.32
2023-03-08T11:16:23.425Z,6.35
2023-03-08T11:19:06.690Z,4.85
2023-03-08T11:22:06.099Z,3.65
2023-03-08T11:25:02.055Z,3.20
2023-03-08T11:27:52.510Z,3.20
2023-03-08T11:30:29.885Z,3.42
2023-03-08T11:33:31.750Z,3.65
2023-03-08T11:36:40.694Z,4.80
2023-03-08T11:39:35.158Z,3.22
2023-03-08T11:42:20.084Z,3.22
2023-03-08T11:45:38.198Z,2.72
2023-03-08T11:48:46.086Z,2.70
2023-03-08T11:51:23.339Z,2.78
2023-03-08T11:54:01.265Z,3.00
2023-03-08T11:56:55.011Z,2.70
2023-03-08T11:59:53.230Z,4.80
2023-03-08T12:02:34.608Z,3.20
2023-03-08T12:05:29.764Z,3.05
2023-03-08T12:08:16.831Z,4.88
2023-03-08T12:10:54.629Z,3.58
2023-03-08T12:13:35.423Z,2.88
2023-03-08T12:16:29.178Z,3.60
2023-03-08T12:19:31.142Z,3.75
2023-03-08T12:22:34.696Z,3.30
2023-03-08T12:25:24.985Z,3.20
2023-03-08T12:28:05.698Z,3.40
2023-03-08T12:31:01.991Z,3.30
2023-03-08T12:33:34.424Z,3.92
2023-03-08T12:36:08.011Z,3.35
2023-03-08T12:38:45.967Z,4.25
2023-03-08T12:41:30.305Z,3.63
2023-03-08T12:44:21.649Z,3.25
2023-03-08T12:47:23.992Z,2.90
2023-03-08T12:49:56.750Z,3.42
2023-03-08T12:52:35.427Z,2.90
2023-03-08T12:55:17.314Z,2.92
2023-03-08T12:57:53.211Z,1.90
2023-03-08T13:00:36.449Z,3.47
2023-03-08T13:03:13.938Z,1.70
2023-03-08T13:05:47.732Z,1.10
2023-03-08T13:08:27.261Z,1.10
2023-03-08T13:11:10.630Z,0.85
2023-03-08T13:13:57.523Z,0.77
2023-03-08T13:16:35.579Z,0.75
2023-03-08T13:19:16.740Z,0.95
2023-03-08T13:22:13.200Z,0.60
2023-03-08T13:24:58.214Z,0.60
2023-03-08T13:28:02.276Z,0.60
2023-03-08T13:30:37.533Z,0.85
2023-03-08T13:33:19.001Z,0.60
2023-03-08T13:35:59.645Z,1.20
2023-03-08T13:38:34.158Z,0.70
2023-03-08T13:41:05.685Z,0.68
2023-03-08T13:43:37.225Z,0.50
2023-03-08T13:46:16.537Z,0.60
2023-03-08T13:48:48.562Z,1.10
2023-03-08T13:51:23.542Z,0.77
2023-03-08T13:53:57.080Z,0.70
2023-03-08T13:56:28.846Z,0.40
2023-03-08T13:59:00.691Z,0.77
2023-03-08T14:01:32.268Z,0.68
2023-03-08T14:04:11.782Z,0.55
2023-03-08T14:06:52.971Z,0.60
2023-03-08T14:09:28.617Z,0.93
2023-03-08T14:12:04.874Z,0.50
2023-03-08T14:14:40.608Z,0.60
2023-03-08T14:17:22.271Z,0.50
2023-03-08T14:20:17.240Z,0.38
2023-03-08T14:22:51.370Z,0.50
2023-03-08T14:25:31.965Z,0.45
2023-03-08T14:28:03.622Z,0.45
2023-03-08T14:30:36.396Z,0.60
2023-03-08T14:33:16.755Z,0.55
2023-03-08T14:36:00.391Z,0.50
2023-03-08T14:38:34.349Z,0.35
2023-03-08T14:41:11.593Z,0.60
2023-03-08T14:43:51.043Z,0.50
2023-03-08T14:46:24.198Z,0.77
2023-03-08T14:49:04.887Z,0.68
2023-03-08T14:51:43.121Z,0.30
2023-03-08T14:54:32.894Z,0.98
2023-03-08T14:57:28.327Z,0.50
2023-03-08T15:00:14.244Z,0.70
2023-03-08T15:02:45.818Z,0.60
2023-03-08T15:05:28.794Z,0.73
2023-03-08T15:08:00.956Z,0.70
2023-03-08T15:10:37.767Z,0.50
2023-03-08T15:13:19.077Z,0.70
2023-03-08T15:15:50.832Z,0.88
2023-03-08T15:18:22.504Z,0.73
2023-03-08T15:20:54.130Z,0.52
2023-03-08T15:23:35.498Z,1.00
2023-03-08T15:26:07.778Z,0.57
2023-03-08T15:28:39.506Z,1.13
2023-03-08T15:31:11.100Z,1.13
2023-03-08T15:33:42.679Z,0.90
2023-03-08T15:36:16.599Z,0.70
2023-03-08T15:38:48.424Z,0.60
2023-03-08T15:41:20.403Z,0.82
2023-03-08T15:43:54.464Z,0.60
2023-03-08T15:46:28.561Z,0.80
2023-03-08T15:49:00.215Z,0.95
2023-03-08T15:51:34.570Z,0.88
2023-03-08T15:54:07.399Z,1.15
2023-03-08T15:56:38.910Z,1.33
2023-03-08T15:59:10.594Z,1.00
2023-03-08T16:01:42.244Z,0.80
2023-03-08T16:04:13.914Z,0.55
2023-03-08T16:06:45.426Z,0.85
2023-03-08T16:09:17.005Z,1.52
2023-03-08T16:11:48.548Z,0.70
2023-03-08T16:14:20.197Z,0.85
2023-03-08T16:16:51.743Z,0.75
2023-03-08T16:19:24.671Z,1.17
2023-03-08T16:21:56.212Z,1.30
2023-03-08T16:24:28.978Z,1.63
2023-03-08T16:27:00.631Z,0.77
2023-03-08T16:29:33.592Z,0.85
2023-03-08T16:32:05.509Z,0.98
2023-03-08T16:34:37.892Z,0.93
2023-03-08T16:39:41.991Z,1.00
2023-03-08T16:42:13.932Z,1.23
2023-03-08T16:44:50.617Z,1.30
2023-03-08T16:47:23.957Z,1.85
2023-03-08T16:49:55.708Z,1.02
2023-03-08T16:52:27.580Z,1.17
2023-03-08T16:54:59.112Z,0.85
2023-03-08T16:57:30.780Z,0.93
2023-03-08T17:00:02.303Z,1.65
2023-03-08T17:02:33.952Z,1.35
2023-03-08T17:05:06.659Z,1.02
2023-03-08T17:07:38.624Z,0.95
2023-03-08T17:10:10.762Z,3.05
2023-03-08T17:12:42.295Z,1.05
2023-03-08T17:15:13.823Z,1.20
2023-03-08T17:17:45.317Z,1.10
2023-03-08T17:20:17.061Z,1.15
2023-03-08T17:22:48.764Z,1.15
2023-03-08T17:25:20.441Z,0.90
2023-03-08T17:27:51.992Z,1.08
2023-03-08T17:30:23.828Z,1.15
2023-03-08T17:32:55.639Z,1.10
2023-03-08T17:35:27.468Z,1.20
2023-03-08T17:37:59.161Z,0.98
2023-03-08T17:40:30.677Z,0.80
2023-03-08T17:43:02.842Z,0.93
2023-03-08T17:45:34.425Z,1.10
2023-03-08T17:48:06.053Z,0.68
2023-03-08T17:50:37.640Z,0.93
2023-03-08T17:53:12.618Z,0.73
2023-03-08T17:55:44.342Z,1.05
2023-03-08T17:58:15.944Z,0.80
2023-03-08T18:00:47.474Z,1.40
2023-03-08T18:03:19.141Z,2.15
2023-03-08T18:05:52.996Z,1.92
2023-03-08T18:08:24.480Z,2.65
2023-03-08T18:10:56.136Z,1.40
2023-03-08T18:13:27.686Z,2.25
2023-03-08T18:15:59.834Z,1.40
2023-03-08T18:18:31.604Z,1.02
2023-03-08T18:21:13.494Z,0.65
2023-03-08T18:26:19.140Z,0.68
2023-03-08T18:28:50.993Z,0.90
2023-03-08T18:31:26.036Z,0.77
2023-03-08T18:33:57.815Z,0.98
2023-03-08T18:36:29.381Z,0.70
2023-03-08T18:39:02.849Z,1.05
2023-03-08T18:41:35.369Z,1.30
2023-03-08T18:44:07.449Z,1.83
2023-03-08T18:46:41.682Z,2.30
2023-03-08T18:49:14.793Z,0.90
2023-03-08T18:51:46.437Z,0.82
2023-03-08T18:54:20.931Z,1.70
2023-03-08T18:56:59.101Z,0.80
2023-03-08T18:59:33.650Z,0.50
2023-03-08T19:02:05.213Z,0.50
2023-03-08T19:04:41.132Z,0.20
2023-03-08T19:07:15.399Z,0.40
2023-03-08T19:09:46.923Z,0.30
2023-03-08T19:12:18.501Z,0.28
2023-03-08T19:14:52.314Z,0.30
2023-03-08T19:17:23.892Z,0.57
2023-03-08T19:19:55.407Z,0.22
2023-03-08T19:22:26.993Z,0.40
2023-03-08T19:24:58.486Z,0.30
2023-03-08T19:27:30.064Z,0.20
2023-03-08T19:30:01.826Z,0.50
2023-03-08T19:32:36.226Z,0.20
2023-03-08T19:35:09.363Z,0.20
2023-03-08T19:37:41.892Z,0.30
2023-03-08T19:40:19.520Z,0.30
2023-03-08T19:42:51.789Z,0.40
2023-03-08T19:45:25.655Z,0.30
2023-03-08T19:47:57.217Z,0.30
2023-03-08T19:50:28.774Z,0.52
2023-03-08T19:53:00.479Z,0.68
2023-03-08T19:55:32.056Z,0.32
2023-03-08T19:58:03.563Z,0.10
2023-03-08T20:00:35.151Z,0.82
2023-03-08T20:03:09.416Z,0.28
2023-03-08T20:05:45.722Z,0.20
2023-03-08T20:08:17.422Z,0.52
2023-03-08T20:10:49.816Z,0.30
2023-03-08T20:13:21.423Z,0.57
2023-03-08T20:15:52.911Z,0.30
2023-03-08T20:18:26.168Z,0.20
2023-03-08T20:20:59.179Z,0.20
2023-03-08T20:23:33.866Z,0.25
2023-03-08T20:26:06.675Z,0.10
2023-03-08T20:28:38.572Z,0.10
2023-03-08T20:31:11.463Z,0.20
2023-03-08T20:33:43.671Z,0.20
2023-03-08T20:36:16.550Z,0.10
2023-03-08T20:38:48.172Z,0.20
2023-03-08T20:41:21.616Z,0.28
2023-03-08T20:43:55.594Z,0.22
2023-03-08T20:46:32.869Z,0.20
2023-03-08T20:49:04.918Z,0.50
2023-03-08T20:51:36.495Z,0.30
2023-03-08T20:54:08.640Z,0.20
2023-03-08T20:56:41.382Z,0.20
2023-03-08T20:59:13.353Z,0.00
2023-03-08T21:01:45.621Z,0.10
2023-03-08T21:06:51.273Z,0.20
2023-03-08T21:09:22.871Z,0.15
2023-03-08T21:11:54.420Z,0.30
2023-03-08T21:14:26.345Z,0.40
2023-03-08T21:16:57.993Z,0.20
2023-03-08T21:19:29.555Z,0.20
2023-03-08T21:22:03.285Z,0.10
2023-03-08T21:24:35.696Z,0.25
2023-03-08T21:29:41.273Z,0.30
2023-03-08T21:32:12.824Z,0.30
2023-03-08T21:34:47.543Z,0.10
2023-03-08T21:37:20.194Z,0.30
2023-03-08T21:39:51.952Z,0.40
2023-03-08T21:42:24.569Z,0.20
2023-03-08T21:44:56.215Z,0.30
2023-03-08T21:47:27.928Z,0.30
2023-03-08T21:49:59.615Z,0.32
2023-03-08T21:52:31.107Z,0.32
2023-03-08T21:55:02.651Z,0.20
2023-03-08T21:57:34.306Z,0.20
2023-03-08T22:00:07.160Z,0.30
2023-03-08T22:02:44.894Z,0.50
2023-03-08T22:05:16.606Z,0.40
2023-03-08T22:07:48.211Z,0.22
2023-03-08T22:10:20.352Z,0.30
2023-03-08T22:12:51.959Z,0.28
2023-03-08T22:15:23.540Z,0.73
2023-03-08T22:17:55.049Z,0.20
2023-03-08T22:20:27.551Z,0.40
2023-03-08T22:22:59.114Z,0.60
2023-03-08T22:25:30.772Z,0.38
2023-03-08T22:28:03.658Z,0.30
2023-03-08T22:30:35.211Z,0.30
2023-03-08T22:33:07.881Z,0.47
2023-03-08T22:35:39.616Z,0.30
2023-03-08T22:38:12.573Z,0.60
2023-03-08T22:40:44.470Z,0.25
2023-03-08T22:43:16.113Z,0.60
2023-03-08T22:45:47.635Z,0.30
2023-03-08T22:48:19.390Z,0.40
2023-03-08T22:50:58.731Z,0.30
2023-03-08T22:53:41.076Z,0.40
2023-03-08T22:56:21.929Z,0.47
2023-03-08T22:58:53.966Z,0.20
2023-03-08T23:01:27.785Z,0.50
2023-03-08T23:04:01.037Z,2.05
2023-03-08T23:06:35.517Z,0.40
2023-03-08T23:09:12.882Z,0.30
2023-03-08T23:11:45.010Z,0.60
2023-03-08T23:14:16.998Z,0.52
2023-03-08T23:16:48.773Z,0.40
2023-03-08T23:19:21.852Z,0.50
2023-03-08T23:21:53.740Z,0.55
2023-03-08T23:24:25.301Z,0.32
2023-03-08T23:27:01.759Z,0.55
2023-03-08T23:29:33.404Z,0.40
2023-03-08T23:32:05.893Z,0.63
2023-03-08T23:34:38.767Z,0.30
2023-03-08T23:37:11.527Z,0.60
2023-03-08T23:39:43.434Z,0.43
2023-03-08T23:42:15.018Z,0.32
2023-03-08T23:44:46.651Z,0.45
2023-03-08T23:47:18.221Z,0.50
2023-03-08T23:49:49.699Z,0.52
2023-03-08T23:52:21.373Z,0.50
2023-03-08T23:54:53.211Z,0.52
2023-03-08T23:57:26.112Z,0.50
2023-03-08T23:59:58.010Z,0.40
